Time;durP1;ratioP1;P1;durP2;ratioP2;P2;SDS_P1;SDS_P2;PMS_P1;PMS_P2;Temp;Humidity;BMP_temperature;BMP_pressure;BME280_temperature;BME280_humidity;BME280_pressure;Samples;Min_cycle;Max_cycle;Signal;HPM_P1;HPM_P2
2021/08/23 00:02:55;;;;;;;5.67;2.30;;;;;;;;;;10399826;28;20284;-70
2021/08/23 00:07:57;;;;;;;4.77;2.30;;;;;;;;;;10400019;28;20217;-71
2021/08/23 00:13:00;;;;;;;6.33;2.23;;;;;;;;;;10397084;28;20298;-71
2021/08/23 00:18:04;;;;;;;6.33;2.60;;;;;;;;;;10400931;28;20194;-70
2021/08/23 00:23:10;;;;;;;6.43;2.63;;;;;;;;;;10399966;28;20352;-72
2021/08/23 00:28:13;;;;;;;7.00;2.57;;;;;;;;;;10405281;28;20233;-71
2021/08/23 00:33:17;;;;;;;5.70;2.70;;;;;;;;;;10404846;28;20213;-71
2021/08/23 00:38:20;;;;;;;5.77;2.43;;;;;;;;;;10399585;28;20371;-71
2021/08/23 00:43:22;;;;;;;5.50;2.47;;;;;;;;;;10399461;28;20248;-70
2021/08/23 00:48:26;;;;;;;5.17;2.27;;;;;;;;;;10402966;28;20217;-72
2021/08/23 00:53:29;;;;;;;8.20;3.30;;;;;;;;;;10409192;28;20225;-70
2021/08/23 00:58:32;;;;;;;5.43;2.53;;;;;;;;;;10395553;28;20190;-72
2021/08/23 01:03:38;;;;;;;6.90;2.73;;;;;;;;;;10407700;28;20271;-72
2021/08/23 01:08:41;;;;;;;5.50;2.20;;;;;;;;;;10402430;28;20221;-71
2021/08/23 01:13:44;;;;;;;5.43;2.53;;;;;;;;;;10400308;28;20305;-68
2021/08/23 01:18:50;;;;;;;5.37;2.50;;;;;;;;;;10402314;28;20194;-71
2021/08/23 01:23:53;;;;;;;4.80;2.33;;;;;;;;;;10396941;28;20221;-69
2021/08/23 01:28:59;;;;;;;4.27;2.13;;;;;;;;;;10397044;28;20625;-69
2021/08/23 01:34:04;;;;;;;5.43;2.57;;;;;;;;;;10406194;28;20221;-71
2021/08/23 01:39:07;;;;;;;5.23;2.37;;;;;;;;;;10396677;28;20193;-71
2021/08/23 01:44:10;;;;;;;5.30;2.20;;;;;;;;;;10406684;28;20585;-71
2021/08/23 01:49:13;;;;;;;5.07;2.50;;;;;;;;;;10400915;28;20289;-70
2021/08/23 01:54:18;;;;;;;5.43;2.30;;;;;;;;;;10406848;28;20221;-69
2021/08/23 01:59:20;;;;;;;6.40;2.73;;;;;;;;;;10407150;28;20263;-70
2021/08/23 02:04:24;;;;;;;4.80;2.47;;;;;;;;;;10398897;28;20209;-68
2021/08/23 02:09:27;;;;;;;4.63;2.20;;;;;;;;;;10408167;28;20213;-70
2021/08/23 02:14:29;;;;;;;6.93;2.40;;;;;;;;;;10405258;28;20549;-69
2021/08/23 02:19:33;;;;;;;4.60;2.00;;;;;;;;;;10400924;28;20680;-69
2021/08/23 02:24:36;;;;;;;5.30;2.00;;;;;;;;;;10407576;28;20634;-69
2021/08/23 02:29:38;;;;;;;6.30;2.30;;;;;;;;;;10399656;28;20190;-70
2021/08/23 02:34:42;;;;;;;3.90;2.10;;;;;;;;;;10406135;28;20736;-68
2021/08/23 02:39:44;;;;;;;3.90;2.03;;;;;;;;;;10402664;28;20201;-70
2021/08/23 02:44:47;;;;;;;4.70;2.10;;;;;;;;;;10404192;28;20252;-70
2021/08/23 02:49:51;;;;;;;4.60;2.20;;;;;;;;;;10401279;28;20198;-68
2021/08/23 02:54:54;;;;;;;3.90;2.00;;;;;;;;;;10396430;28;20256;-69
2021/08/23 02:59:56;;;;;;;4.80;2.00;;;;;;;;;;10400054;28;20224;-70
2021/08/23 03:05:00;;;;;;;4.13;1.90;;;;;;;;;;10392610;28;20559;-69
2021/08/23 03:10:03;;;;;;;4.80;2.13;;;;;;;;;;10403261;28;20565;-70
2021/08/23 03:15:06;;;;;;;4.13;1.90;;;;;;;;;;10398763;28;20229;-68
2021/08/23 03:20:10;;;;;;;5.23;2.00;;;;;;;;;;10403578;28;20273;-69
2021/08/23 03:25:12;;;;;;;5.40;2.30;;;;;;;;;;10400715;28;20367;-70
2021/08/23 03:30:15;;;;;;;5.03;2.00;;;;;;;;;;10399213;28;20598;-71
2021/08/23 03:35:19;;;;;;;4.93;2.00;;;;;;;;;;10400406;28;20206;-70
2021/08/23 03:40:21;;;;;;;4.37;1.90;;;;;;;;;;10399567;28;20613;-70
2021/08/23 03:45:24;;;;;;;6.47;2.17;;;;;;;;;;10404524;28;20316;-70
2021/08/23 03:50:28;;;;;;;3.97;1.83;;;;;;;;;;10395569;28;20197;-69
2021/08/23 03:55:31;;;;;;;6.83;2.50;;;;;;;;;;10400244;28;20224;-71
2021/08/23 04:00:34;;;;;;;4.57;2.10;;;;;;;;;;10411507;28;20189;-70
2021/08/23 04:05:38;;;;;;;4.90;2.20;;;;;;;;;;10406766;28;20226;-70
2021/08/23 04:10:40;;;;;;;4.33;2.27;;;;;;;;;;10412152;28;20618;-70
2021/08/23 04:15:45;;;;;;;3.80;1.70;;;;;;;;;;10405500;28;20295;-71
2021/08/23 04:20:49;;;;;;;5.27;1.90;;;;;;;;;;10403169;28;20297;-71
2021/08/23 04:25:52;;;;;;;4.60;2.00;;;;;;;;;;10406588;28;20218;-70
2021/08/23 04:30:55;;;;;;;4.20;1.90;;;;;;;;;;10409242;28;20229;-68
2021/08/23 04:35:58;;;;;;;3.97;2.00;;;;;;;;;;10411407;28;20273;-69
2021/08/23 04:41:01;;;;;;;5.70;2.10;;;;;;;;;;10406042;28;20193;-69
2021/08/23 04:46:04;;;;;;;5.50;1.90;;;;;;;;;;10411982;28;20266;-69
2021/08/23 04:51:09;;;;;;;5.50;2.20;;;;;;;;;;10407118;28;20654;-70
2021/08/23 04:56:15;;;;;;;6.00;2.20;;;;;;;;;;10404308;28;20549;-69
2021/08/23 05:01:19;;;;;;;3.87;1.90;;;;;;;;;;10405019;28;20295;-68
2021/08/23 05:06:23;;;;;;;4.50;2.00;;;;;;;;;;10395313;28;20562;-69
2021/08/23 05:11:25;;;;;;;5.07;2.10;;;;;;;;;;10401062;28;20248;-66
2021/08/23 05:16:28;;;;;;;6.50;2.23;;;;;;;;;;10401122;28;20185;-68
2021/08/23 05:21:32;;;;;;;4.77;2.10;;;;;;;;;;10397836;28;20562;-68
2021/08/23 05:26:37;;;;;;;5.60;2.17;;;;;;;;;;10403621;28;20605;-69
2021/08/23 05:31:39;;;;;;;6.43;2.40;;;;;;;;;;10402815;28;20230;-69
2021/08/23 05:36:43;;;;;;;6.77;2.33;;;;;;;;;;10407986;28;20197;-70
2021/08/23 05:41:46;;;;;;;6.30;2.27;;;;;;;;;;10401171;28;20225;-70
2021/08/23 05:46:49;;;;;;;5.60;1.97;;;;;;;;;;10404670;28;20348;-69
2021/08/23 05:51:53;;;;;;;7.53;2.43;;;;;;;;;;10407232;28;20701;-71
2021/08/23 05:57:00;;;;;;;5.93;2.27;;;;;;;;;;10399274;28;20256;-70
2021/08/23 06:02:03;;;;;;;5.50;2.03;;;;;;;;;;10407176;28;20246;-69
2021/08/23 06:07:08;;;;;;;3.83;1.87;;;;;;;;;;10397921;28;20228;-71
2021/08/23 06:12:10;;;;;;;5.27;2.20;;;;;;;;;;10394198;28;20728;-69
2021/08/23 06:17:13;;;;;;;6.57;3.40;;;;;;;;;;10415327;28;20285;-70
2021/08/23 06:22:17;;;;;;;7.27;2.37;;;;;;;;;;10402946;28;20764;-70
2021/08/23 06:27:21;;;;;;;4.53;1.90;;;;;;;;;;10393927;28;20264;-69
2021/08/23 06:32:23;;;;;;;5.37;2.10;;;;;;;;;;10396304;28;20662;-70
2021/08/23 06:37:27;;;;;;;4.67;1.70;;;;;;;;;;10395214;28;20614;-69
2021/08/23 06:42:30;;;;;;;5.63;2.27;;;;;;;;;;10397966;28;20221;-69
2021/08/23 06:47:32;;;;;;;4.33;1.97;;;;;;;;;;10399589;28;20210;-70
2021/08/23 06:52:37;;;;;;;3.43;1.77;;;;;;;;;;10394710;28;20217;-70
2021/08/23 06:57:39;;;;;;;4.00;1.80;;;;;;;;;;10397605;28;20601;-70
2021/08/23 07:02:42;;;;;;;6.93;1.93;;;;;;;;;;10404767;28;20217;-69
2021/08/23 07:07:46;;;;;;;3.03;1.80;;;;;;;;;;10392654;28;20637;-69
2021/08/23 07:12:49;;;;;;;5.03;1.83;;;;;;;;;;10403327;28;20233;-70
2021/08/23 07:17:52;;;;;;;4.57;1.90;;;;;;;;;;10395872;28;20197;-68
2021/08/23 07:22:57;;;;;;;3.53;1.90;;;;;;;;;;10393348;28;20222;-69
2021/08/23 07:28:01;;;;;;;3.43;1.90;;;;;;;;;;10399590;28;20288;-70
2021/08/23 07:33:04;;;;;;;5.88;2.08;;;;;;;;;;10411659;28;20217;-69
2021/08/23 07:38:07;;;;;;;4.40;2.27;;;;;;;;;;10409681;28;20190;-74
2021/08/23 07:43:10;;;;;;;4.23;2.00;;;;;;;;;;10402163;28;20301;-74
2021/08/23 07:48:13;;;;;;;4.20;1.80;;;;;;;;;;10379889;28;20225;-78
2021/08/23 07:53:16;;;;;;;4.38;1.90;;;;;;;;;;10405567;28;20233;-75
2021/08/23 07:58:20;;;;;;;4.75;1.95;;;;;;;;;;10391565;28;20744;-77
2021/08/23 08:03:22;;;;;;;3.73;1.80;;;;;;;;;;10400033;28;20267;-75
2021/08/23 08:08:28;;;;;;;4.18;2.03;;;;;;;;;;10395688;28;20205;-75
2021/08/23 08:13:31;;;;;;;5.82;2.20;;;;;;;;;;10375304;28;20225;-72
2021/08/23 08:18:33;;;;;;;4.05;1.98;;;;;;;;;;10386062;28;20186;-72
2021/08/23 08:23:37;;;;;;;4.95;2.15;;;;;;;;;;10378500;28;20253;-71
2021/08/23 08:28:40;;;;;;;3.90;2.13;;;;;;;;;;10393104;28;20265;-71
2021/08/23 08:33:42;;;;;;;5.80;2.00;;;;;;;;;;10393437;28;20690;-71
2021/08/23 08:38:48;;;;;;;5.43;1.95;;;;;;;;;;10398838;28;20580;-71
2021/08/23 08:43:50;;;;;;;3.60;1.90;;;;;;;;;;10398724;28;20800;-70
2021/08/23 08:48:54;;;;;;;3.92;1.98;;;;;;;;;;10408440;28;20704;-72
2021/08/23 08:53:58;;;;;;;4.40;1.90;;;;;;;;;;10408520;28;20221;-72
2021/08/23 08:59:01;;;;;;;3.67;1.83;;;;;;;;;;10405331;28;20203;-72
2021/08/23 09:04:05;;;;;;;2.50;1.70;;;;;;;;;;10404528;28;20224;-72
2021/08/23 09:09:29;;;;;;;3.08;1.80;;;;;;;;;;10403127;28;20225;-72
2021/08/23 09:14:32;;;;;;;3.00;1.80;;;;;;;;;;10402906;28;20241;-70
2021/08/23 09:19:36;;;;;;;3.22;1.70;;;;;;;;;;10401576;28;20198;-71
2021/08/23 09:24:41;;;;;;;3.45;2.10;;;;;;;;;;10405634;28;20894;-70
2021/08/23 09:29:54;;;;;;;3.58;1.70;;;;;;;;;;10403711;28;20217;-71
2021/08/23 09:34:57;;;;;;;2.92;1.80;;;;;;;;;;10404499;28;20307;-71
2021/08/23 09:40:10;;;;;;;3.40;1.80;;;;;;;;;;10408356;28;20201;-72
2021/08/23 09:45:16;;;;;;;3.35;1.90;;;;;;;;;;10400388;28;20673;-73
2021/08/23 09:50:18;;;;;;;3.30;1.70;;;;;;;;;;10400768;28;20301;-74
2021/08/23 09:55:28;;;;;;;3.28;1.77;;;;;;;;;;10397755;28;20238;-73
2021/08/23 10:00:30;;;;;;;3.83;1.83;;;;;;;;;;10389400;28;20320;-72
2021/08/23 10:05:33;;;;;;;2.42;1.60;;;;;;;;;;10395293;28;20209;-72
2021/08/23 10:10:39;;;;;;;3.28;1.50;;;;;;;;;;10405467;28;20198;-73
2021/08/23 10:15:41;;;;;;;2.97;1.80;;;;;;;;;;10388487;28;20267;-72
2021/08/23 10:20:44;;;;;;;3.83;1.70;;;;;;;;;;10400560;28;20629;-73
2021/08/23 10:25:49;;;;;;;3.97;1.70;;;;;;;;;;10405399;28;20384;-72
2021/08/23 10:30:51;;;;;;;2.58;1.55;;;;;;;;;;10385894;28;20209;-70
2021/08/23 10:35:56;;;;;;;2.78;1.52;;;;;;;;;;10398271;28;20222;-73
2021/08/23 10:41:07;;;;;;;3.85;1.50;;;;;;;;;;10387731;28;20293;-73
2021/08/23 10:46:19;;;;;;;3.45;1.80;;;;;;;;;;10387301;28;20308;-72
2021/08/23 10:51:29;;;;;;;2.63;1.60;;;;;;;;;;10395077;28;20245;-73
2021/08/23 10:56:40;;;;;;;2.45;1.75;;;;;;;;;;10396894;28;20193;-73
2021/08/23 11:01:52;;;;;;;3.22;1.80;;;;;;;;;;10393562;28;20212;-72
2021/08/23 11:06:55;;;;;;;3.90;1.67;;;;;;;;;;10395225;28;20193;-72
2021/08/23 11:12:07;;;;;;;5.18;2.20;;;;;;;;;;10399830;28;20283;-74
2021/08/23 11:17:14;;;;;;;2.40;1.63;;;;;;;;;;10399111;28;20284;-74
2021/08/23 11:22:17;;;;;;;3.45;2.05;;;;;;;;;;10400774;28;20617;-74
2021/08/23 11:27:20;;;;;;;2.92;1.80;;;;;;;;;;10391118;28;20209;-74
2021/08/23 11:32:28;;;;;;;3.38;1.73;;;;;;;;;;10396895;28;20287;-73
2021/08/23 11:37:30;;;;;;;4.32;2.00;;;;;;;;;;10391003;28;20660;-74
2021/08/23 11:42:34;;;;;;;5.20;2.13;;;;;;;;;;10395460;28;20226;-74
2021/08/23 11:47:57;;;;;;;3.60;1.95;;;;;;;;;;10395812;28;20209;-73
2021/08/23 11:53:06;;;;;;;6.13;2.10;;;;;;;;;;10401341;28;20846;-79
2021/08/23 11:58:11;;;;;;;5.18;2.10;;;;;;;;;;10379933;28;20201;-72
2021/08/23 12:03:14;;;;;;;4.22;1.98;;;;;;;;;;10395331;28;20218;-72
2021/08/23 12:08:27;;;;;;;4.25;1.90;;;;;;;;;;10395987;28;20225;-73
2021/08/23 12:13:37;;;;;;;2.85;1.80;;;;;;;;;;10395409;28;20581;-73
2021/08/23 12:18:41;;;;;;;3.65;1.95;;;;;;;;;;10403954;28;20190;-75
2021/08/23 12:23:48;;;;;;;2.67;1.73;;;;;;;;;;10406447;28;20253;-73
2021/08/23 12:28:53;;;;;;;3.17;1.65;;;;;;;;;;10403382;28;20221;-73
2021/08/23 12:33:55;;;;;;;3.10;1.73;;;;;;;;;;10405854;28;20213;-73
2021/08/23 12:39:00;;;;;;;4.38;1.88;;;;;;;;;;10405407;28;20190;-72
2021/08/23 12:44:04;;;;;;;3.63;1.75;;;;;;;;;;10406252;28;20221;-72
2021/08/23 12:49:07;;;;;;;3.83;1.90;;;;;;;;;;10402088;28;20209;-72
2021/08/23 12:54:10;;;;;;;3.63;1.90;;;;;;;;;;10407262;28;20248;-72
2021/08/23 12:59:15;;;;;;;4.28;1.88;;;;;;;;;;10403404;28;20752;-71
2021/08/23 13:04:17;;;;;;;4.60;2.00;;;;;;;;;;10402384;28;20580;-72
2021/08/23 13:09:20;;;;;;;3.08;1.50;;;;;;;;;;10409254;28;20674;-72
2021/08/23 13:14:24;;;;;;;5.00;2.05;;;;;;;;;;10405062;28;20241;-71
2021/08/23 13:19:26;;;;;;;3.75;1.63;;;;;;;;;;10409042;28;20186;-71
2021/08/23 13:24:29;;;;;;;3.03;1.52;;;;;;;;;;10406885;28;20244;-71
2021/08/23 13:29:33;;;;;;;3.30;1.70;;;;;;;;;;10402365;28;20246;-70
2021/08/23 13:34:36;;;;;;;3.45;1.60;;;;;;;;;;10398357;28;20241;-74
2021/08/23 13:39:38;;;;;;;2.45;1.40;;;;;;;;;;10405743;28;20224;-70
2021/08/23 13:44:42;;;;;;;3.65;1.83;;;;;;;;;;10403519;28;20217;-71
2021/08/23 13:49:44;;;;;;;4.72;1.85;;;;;;;;;;10404656;28;20206;-71
2021/08/23 13:54:47;;;;;;;4.15;1.70;;;;;;;;;;10404435;28;20244;-71
2021/08/23 13:59:51;;;;;;;6.47;1.83;;;;;;;;;;10400539;28;20818;-70
2021/08/23 14:04:53;;;;;;;4.97;1.90;;;;;;;;;;10403131;28;20261;-71
2021/08/23 14:10:16;;;;;;;4.30;2.00;;;;;;;;;;10389772;28;20205;-71
2021/08/23 14:15:20;;;;;;;3.72;1.80;;;;;;;;;;10390568;28;20396;-73
2021/08/23 14:20:22;;;;;;;2.55;1.50;;;;;;;;;;10396490;28;20272;-71
2021/08/23 14:25:25;;;;;;;2.80;1.60;;;;;;;;;;10395062;28;20217;-72
2021/08/23 14:30:29;;;;;;;3.70;1.63;;;;;;;;;;10393293;28;20267;-70
2021/08/23 14:35:31;;;;;;;2.55;1.55;;;;;;;;;;10397828;28;20237;-71
2021/08/23 14:40:38;;;;;;;2.97;1.40;;;;;;;;;;10399474;28;20201;-71
2021/08/23 14:45:42;;;;;;;3.80;1.70;;;;;;;;;;10399150;28;20772;-74
2021/08/23 14:50:45;;;;;;;2.90;1.65;;;;;;;;;;10396509;28;20211;-72
2021/08/23 14:55:47;;;;;;;3.25;1.60;;;;;;;;;;10397090;28;20672;-71
2021/08/23 15:00:51;;;;;;;5.45;1.73;;;;;;;;;;10391076;28;20290;-72
2021/08/23 15:05:53;;;;;;;3.47;1.73;;;;;;;;;;10386356;28;20288;-71
2021/08/23 15:10:56;;;;;;;2.97;1.55;;;;;;;;;;10393356;28;20206;-72
2021/08/23 15:16:02;;;;;;;3.22;1.50;;;;;;;;;;10399802;28;20618;-74
2021/08/23 15:21:06;;;;;;;3.63;1.70;;;;;;;;;;10386486;28;20844;-74
2021/08/23 15:26:09;;;;;;;4.47;1.70;;;;;;;;;;10403966;28;20252;-73
2021/08/23 15:31:13;;;;;;;3.25;1.70;;;;;;;;;;10390084;28;20205;-73
2021/08/23 15:36:15;;;;;;;3.92;1.90;;;;;;;;;;10400711;28;20221;-72
2021/08/23 15:41:18;;;;;;;2.88;1.40;;;;;;;;;;10382491;28;20317;-73
2021/08/23 15:46:22;;;;;;;3.47;1.70;;;;;;;;;;10391678;28;20205;-75
2021/08/23 15:51:25;;;;;;;3.63;1.75;;;;;;;;;;10397241;28;20281;-74
2021/08/23 15:56:27;;;;;;;4.10;1.80;;;;;;;;;;10406601;28;20388;-73
2021/08/23 16:01:31;;;;;;;2.30;1.50;;;;;;;;;;10407444;28;20237;-72
2021/08/23 16:06:34;;;;;;;4.03;1.50;;;;;;;;;;10406579;28;20238;-72
2021/08/23 16:11:36;;;;;;;4.13;1.70;;;;;;;;;;10407314;28;20276;-73
2021/08/23 16:16:40;;;;;;;3.60;1.70;;;;;;;;;;10398042;28;20559;-72
2021/08/23 16:21:44;;;;;;;4.57;1.97;;;;;;;;;;10402604;28;20296;-72
2021/08/23 16:26:46;;;;;;;3.57;1.70;;;;;;;;;;10404043;28;20205;-72
2021/08/23 16:31:51;;;;;;;3.60;1.80;;;;;;;;;;10403559;28;20301;-72
2021/08/23 16:36:54;;;;;;;3.60;1.83;;;;;;;;;;10407321;28;20672;-73
2021/08/23 16:41:58;;;;;;;3.57;1.73;;;;;;;;;;10390958;28;20289;-73
2021/08/23 16:47:02;;;;;;;4.03;1.87;;;;;;;;;;10403397;28;20197;-73
2021/08/23 16:52:04;;;;;;;4.37;1.90;;;;;;;;;;10405605;28;20229;-74
2021/08/23 16:57:07;;;;;;;3.57;1.97;;;;;;;;;;10406963;28;20206;-72
2021/08/23 17:02:11;;;;;;;5.97;2.27;;;;;;;;;;10401866;28;20233;-74
2021/08/23 17:07:23;;;;;;;7.10;2.73;;;;;;;;;;10403587;28;20574;-72
2021/08/23 17:12:26;;;;;;;6.20;2.83;;;;;;;;;;10402617;28;20221;-73
2021/08/23 17:17:30;;;;;;;6.00;3.23;;;;;;;;;;10402996;28;21031;-74
2021/08/23 17:22:33;;;;;;;7.93;3.77;;;;;;;;;;10404416;28;20212;-72
2021/08/23 17:27:35;;;;;;;6.43;3.37;;;;;;;;;;10395900;28;20755;-73
2021/08/23 17:32:39;;;;;;;6.97;3.67;;;;;;;;;;10395628;28;20225;-70
2021/08/23 17:37:42;;;;;;;7.97;4.20;;;;;;;;;;10396605;28;20193;-71
2021/08/23 17:42:44;;;;;;;7.97;4.00;;;;;;;;;;10405796;28;20217;-70
2021/08/23 17:47:48;;;;;;;8.67;4.30;;;;;;;;;;10399446;28;20277;-70
2021/08/23 17:52:51;;;;;;;8.57;4.63;;;;;;;;;;10399207;28;20278;-69
2021/08/23 17:57:55;;;;;;;7.73;4.37;;;;;;;;;;10396702;28;20197;-69
2021/08/23 18:02:59;;;;;;;9.67;4.70;;;;;;;;;;10394914;28;20284;-70
2021/08/23 18:08:02;;;;;;;8.97;4.77;;;;;;;;;;10398758;28;20193;-71
2021/08/23 18:13:05;;;;;;;8.57;4.40;;;;;;;;;;10390810;28;20983;-71
2021/08/23 18:18:09;;;;;;;8.57;4.67;;;;;;;;;;10392920;28;20229;-71
2021/08/23 18:23:11;;;;;;;9.20;5.17;;;;;;;;;;10401713;28;20228;-71
2021/08/23 18:28:14;;;;;;;8.63;4.77;;;;;;;;;;10404210;28;20217;-71
2021/08/23 18:33:18;;;;;;;7.80;4.60;;;;;;;;;;10401025;28;20240;-72
2021/08/23 18:38:21;;;;;;;10.87;6.73;;;;;;;;;;10398744;28;20216;-71
2021/08/23 18:43:25;;;;;;;9.37;5.00;;;;;;;;;;10398380;28;20262;-73
2021/08/23 18:48:29;;;;;;;8.57;4.77;;;;;;;;;;10387946;28;20194;-73
2021/08/23 18:53:32;;;;;;;8.50;4.63;;;;;;;;;;10397999;28;20218;-73
2021/08/23 18:58:35;;;;;;;8.37;4.57;;;;;;;;;;10392242;28;20196;-72
2021/08/23 19:03:39;;;;;;;9.00;4.57;;;;;;;;;;10390139;28;20218;-72
2021/08/23 19:08:41;;;;;;;7.90;4.43;;;;;;;;;;10388668;28;20606;-73
2021/08/23 19:13:44;;;;;;;10.53;5.63;;;;;;;;;;10390211;28;20756;-73
2021/08/23 19:18:48;;;;;;;9.67;5.43;;;;;;;;;;10393425;28;20273;-74
2021/08/23 19:23:50;;;;;;;9.77;5.30;;;;;;;;;;10389979;28;20238;-73
2021/08/23 19:28:53;;;;;;;5.53;2.77;;;;;;;;;;10390395;28;20210;-72
2021/08/23 19:33:57;;;;;;;4.40;2.40;;;;;;;;;;10389114;28;20291;-72
2021/08/23 19:38:59;;;;;;;5.73;2.80;;;;;;;;;;10391618;28;20272;-71
2021/08/23 19:44:02;;;;;;;5.87;2.63;;;;;;;;;;10389503;28;20218;-73
2021/08/23 19:49:06;;;;;;;4.47;2.40;;;;;;;;;;10392046;28;20347;-70
2021/08/23 19:54:09;;;;;;;5.03;2.50;;;;;;;;;;10388496;28;20482;-73
2021/08/23 19:59:13;;;;;;;5.57;2.80;;;;;;;;;;10389427;28;20185;-73
2021/08/23 20:04:15;;;;;;;5.10;2.70;;;;;;;;;;10397123;28;20294;-73
2021/08/23 20:09:18;;;;;;;6.13;3.03;;;;;;;;;;10398462;28;20272;-73
2021/08/23 20:14:22;;;;;;;5.60;2.90;;;;;;;;;;10387378;28;20594;-71
2021/08/23 20:19:25;;;;;;;6.03;3.10;;;;;;;;;;10387414;28;20259;-72
2021/08/23 20:24:27;;;;;;;6.23;3.37;;;;;;;;;;10387610;28;20248;-73
2021/08/23 20:29:31;;;;;;;5.83;3.23;;;;;;;;;;10386882;28;20194;-75
2021/08/23 20:34:35;;;;;;;6.30;3.43;;;;;;;;;;10389395;28;20920;-73
2021/08/23 20:39:38;;;;;;;7.07;3.63;;;;;;;;;;10390070;28;20614;-71
2021/08/23 20:44:44;;;;;;;6.77;3.60;;;;;;;;;;10395628;28;20296;-71
2021/08/23 20:49:47;;;;;;;7.55;4.72;;;;;;;;;;10390699;28;20454;-72
2021/08/23 20:54:49;;;;;;;7.63;4.10;;;;;;;;;;10394085;28;20620;-71
2021/08/23 20:59:53;;;;;;;8.87;4.40;;;;;;;;;;10393392;28;20189;-73
2021/08/23 21:04:56;;;;;;;7.57;4.13;;;;;;;;;;10394417;28;20214;-72
2021/08/23 21:09:58;;;;;;;7.70;4.20;;;;;;;;;;10392955;28;20742;-72
2021/08/23 21:15:02;;;;;;;7.67;4.40;;;;;;;;;;10390605;28;20284;-72
2021/08/23 21:20:06;;;;;;;8.03;4.10;;;;;;;;;;10390302;28;20293;-72
2021/08/23 21:25:10;;;;;;;6.97;3.53;;;;;;;;;;10392880;28;20592;-72
2021/08/23 21:30:14;;;;;;;6.10;3.50;;;;;;;;;;10392903;28;20181;-70
2021/08/23 21:35:17;;;;;;;8.63;3.60;;;;;;;;;;10398123;28;20363;-71
2021/08/23 21:40:20;;;;;;;6.93;3.60;;;;;;;;;;10401813;28;20189;-73
2021/08/23 21:45:24;;;;;;;6.10;3.40;;;;;;;;;;10398866;28;20217;-72
2021/08/23 21:50:26;;;;;;;7.13;3.50;;;;;;;;;;10401819;28;20203;-72
2021/08/23 21:55:29;;;;;;;5.70;3.60;;;;;;;;;;10397622;28;20320;-72
2021/08/23 22:00:33;;;;;;;6.30;3.20;;;;;;;;;;10397577;28;20200;-71
2021/08/23 22:05:36;;;;;;;8.27;5.73;;;;;;;;;;10395937;28;20726;-71
2021/08/23 22:10:39;;;;;;;6.23;3.40;;;;;;;;;;10398260;28;20268;-69
2021/08/23 22:15:43;;;;;;;5.43;3.10;;;;;;;;;;10394898;28;20225;-71
2021/08/23 22:20:46;;;;;;;5.73;3.40;;;;;;;;;;10399699;28;20646;-70
2021/08/23 22:25:48;;;;;;;5.53;3.50;;;;;;;;;;10398794;28;20275;-72
2021/08/23 22:30:52;;;;;;;6.00;3.53;;;;;;;;;;10398793;28;20295;-71
2021/08/23 22:35:55;;;;;;;6.10;3.60;;;;;;;;;;10399136;28;20305;-71
2021/08/23 22:40:58;;;;;;;6.57;3.83;;;;;;;;;;10396713;28;20980;-72
2021/08/23 22:46:02;;;;;;;6.07;3.67;;;;;;;;;;10400582;28;20205;-72
2021/08/23 22:51:09;;;;;;;6.67;3.70;;;;;;;;;;10397730;28;20198;-72
2021/08/23 22:56:13;;;;;;;6.07;3.80;;;;;;;;;;10399739;28;20193;-72
2021/08/23 23:01:17;;;;;;;7.07;3.83;;;;;;;;;;10395676;28;20222;-71
2021/08/23 23:06:20;;;;;;;6.40;3.90;;;;;;;;;;10400126;28;20217;-71
2021/08/23 23:11:22;;;;;;;7.17;4.20;;;;;;;;;;10403151;28;20206;-71
2021/08/23 23:16:26;;;;;;;6.90;4.10;;;;;;;;;;10395642;28;20328;-70
2021/08/23 23:21:29;;;;;;;6.87;4.17;;;;;;;;;;10399666;28;20186;-71
2021/08/23 23:26:33;;;;;;;6.70;3.77;;;;;;;;;;10398486;28;20250;-71
2021/08/23 23:31:37;;;;;;;6.70;3.83;;;;;;;;;;10398882;28;20678;-70
2021/08/23 23:36:40;;;;;;;6.60;3.90;;;;;;;;;;10400772;28;20303;-73
2021/08/23 23:41:42;;;;;;;8.07;4.40;;;;;;;;;;10401715;28;20737;-74
2021/08/23 23:46:46;;;;;;;7.63;3.90;;;;;;;;;;10401139;28;20197;-74
2021/08/23 23:51:49;;;;;;;7.33;4.33;;;;;;;;;;10394427;28;20396;-72
2021/08/23 23:56:52;;;;;;;7.87;4.70;;;;;;;;;;10396228;28;20255;-73
